Breu Branco, Brazil
Current Conditions -  °F | °C
As of 10:00 AM on Friday 28 Nov 2014 (Local Time) from SBTU Reporting Station
Broken Clouds Broken Clouds  
Wind Chill: 82°   Ceiling: 2000
Heat Index: 88°   Visibility: 6mi
Dew Point: 73°   Wind: 7mph
Humidity: 74%   Direction: 60°ENE
Pressure: 29.97"   Gusts: NA
Location:  4.07°S, 49.64°W
Report Text: SBTU 281300Z 06006KT 9999 BKN020 28/23 Q1015
Loading
Personal Weather Stations






























Interactive Weather Map New forecast layout! Learn more

10-Day Weather Forecast

Advertisements
Track Severe Weather on mobile